createdAt,value
2023-02-22T00:00:03.439Z,73
2023-02-22T00:20:03.786Z,74
2023-02-22T00:40:02.395Z,74
2023-02-22T01:00:02.907Z,74
2023-02-22T01:20:02.674Z,74
2023-02-22T01:40:03.205Z,75
2023-02-22T02:00:02.982Z,75
2023-02-22T02:20:03.009Z,75
2023-02-22T02:40:02.714Z,75
2023-02-22T03:00:02.959Z,75
2023-02-22T03:20:02.378Z,75
2023-02-22T03:40:02.965Z,76
2023-02-22T04:00:02.461Z,76
2023-02-22T04:20:03.215Z,76
2023-02-22T04:40:02.438Z,76
2023-02-22T05:00:02.705Z,76
2023-02-22T05:20:02.239Z,76
2023-02-22T05:40:02.591Z,77
2023-02-22T06:00:03.055Z,77
2023-02-22T06:20:03.126Z,77
2023-02-22T06:40:05.992Z,77
2023-02-22T07:00:02.301Z,78
2023-02-22T07:20:02.965Z,78
2023-02-22T07:40:02.260Z,78
2023-02-22T08:00:02.974Z,79
2023-02-22T08:20:02.480Z,79
2023-02-22T08:40:02.900Z,78
2023-02-22T09:00:03.438Z,77
2023-02-22T09:20:02.917Z,76
2023-02-22T09:40:02.680Z,75
2023-02-22T10:00:03.980Z,74
2023-02-22T10:20:02.688Z,72
2023-02-22T10:40:03.554Z,71
2023-02-22T11:00:06.211Z,70
2023-02-22T11:20:02.683Z,68
2023-02-22T11:40:03.181Z,66
2023-02-22T12:00:02.773Z,65
2023-02-22T12:20:02.490Z,65
2023-02-22T12:40:03.352Z,65
2023-02-22T13:00:04.084Z,65
2023-02-22T13:20:02.655Z,64
2023-02-22T13:40:02.977Z,64
2023-02-22T14:00:03.581Z,64
2023-02-22T14:20:02.445Z,64
2023-02-22T14:40:03.041Z,64
2023-02-22T15:00:03.292Z,64
2023-02-22T15:20:02.612Z,64
2023-02-22T15:40:04.267Z,64
2023-02-22T16:00:05.428Z,65
2023-02-22T16:20:03.083Z,66
2023-02-22T16:40:02.722Z,66
2023-02-22T17:00:03.858Z,66
2023-02-22T17:20:02.458Z,66
2023-02-22T17:40:04.089Z,67
2023-02-22T18:00:02.642Z,67
2023-02-22T18:20:02.380Z,67
2023-02-22T18:40:02.780Z,68
2023-02-22T19:00:07.380Z,69
2023-02-22T19:20:02.256Z,69
2023-02-22T19:40:02.890Z,68
2023-02-22T20:00:03.621Z,68
2023-02-22T20:20:03.125Z,68
2023-02-22T20:40:05.308Z,68
2023-02-22T21:00:03.718Z,68
2023-02-22T21:20:02.485Z,69
2023-02-22T21:40:03.069Z,70
2023-02-22T22:00:03.022Z,71
2023-02-22T22:20:03.009Z,71
2023-02-22T22:40:02.431Z,72
2023-02-22T23:00:02.782Z,72
2023-02-22T23:20:02.163Z,72
2023-02-22T23:40:02.786Z,73
